createdAt,value
2023-02-09T00:00:49.817Z,16.52
2023-02-09T00:05:02.252Z,21.33
2023-02-09T00:09:14.879Z,10.45
2023-02-09T00:13:28.149Z,32.25
2023-02-09T00:17:40.494Z,19.80
2023-02-09T00:21:52.961Z,16.67
2023-02-09T00:26:11.760Z,20.70
2023-02-09T00:30:27.753Z,14.13
2023-02-09T00:34:40.096Z,20.10
2023-02-09T00:38:52.574Z,38.13
2023-02-09T00:43:05.423Z,19.85
2023-02-09T00:47:17.880Z,37.85
2023-02-09T00:51:30.734Z,35.38
2023-02-09T00:55:43.057Z,17.98
2023-02-09T00:59:55.489Z,21.50
2023-02-09T01:04:08.247Z,16.05
2023-02-09T01:08:20.717Z,28.17
2023-02-09T01:12:33.144Z,25.00
2023-02-09T01:16:45.686Z,19.13
2023-02-09T01:20:58.397Z,14.77
2023-02-09T01:25:10.863Z,21.05
2023-02-09T01:29:23.411Z,28.85
2023-02-09T01:33:35.650Z,17.85
2023-02-09T01:37:47.996Z,18.58
2023-02-09T01:42:00.617Z,17.10
2023-02-09T01:46:12.944Z,50.67
2023-02-09T01:50:27.089Z,19.48
2023-02-09T01:54:47.247Z,25.48
2023-02-09T01:59:00.251Z,24.55
2023-02-09T02:03:16.925Z,15.43
2023-02-09T02:07:41.273Z,4.95
2023-02-09T02:11:53.891Z,4.88
2023-02-09T02:16:20.009Z,12.35
2023-02-09T02:20:54.492Z,9.88
2023-02-09T02:25:28.257Z,18.20
2023-02-09T02:30:04.138Z,13.18
2023-02-09T02:34:21.928Z,22.70
2023-02-09T02:38:37.836Z,13.73
2023-02-09T02:43:00.523Z,10.82
2023-02-09T02:47:19.619Z,17.65
2023-02-09T02:51:40.432Z,11.55
2023-02-09T02:55:55.925Z,9.35
2023-02-09T03:00:17.071Z,10.00
2023-02-09T03:04:31.666Z,5.68
2023-02-09T03:09:02.136Z,10.45
2023-02-09T03:13:36.814Z,8.63
2023-02-09T03:17:54.641Z,6.15
2023-02-09T03:22:19.340Z,3.03
2023-02-09T03:26:40.237Z,4.68
2023-02-09T03:30:54.172Z,5.15
2023-02-09T03:35:07.472Z,5.53
2023-02-09T03:39:20.291Z,7.82
2023-02-09T03:43:51.203Z,8.90
2023-02-09T03:48:05.461Z,2.03
2023-02-09T03:52:18.105Z,7.22
2023-02-09T03:56:30.450Z,8.57
2023-02-09T04:00:43.159Z,7.05
2023-02-09T04:04:55.835Z,3.65
2023-02-09T04:09:09.527Z,8.00
2023-02-09T04:13:21.816Z,5.60
2023-02-09T04:17:34.144Z,5.00
2023-02-09T04:21:46.467Z,8.77
2023-02-09T04:25:58.806Z,3.10
2023-02-09T04:30:11.934Z,10.82
2023-02-09T04:34:24.962Z,8.32
2023-02-09T04:38:37.840Z,2.25
2023-02-09T04:42:50.224Z,9.43
2023-02-09T04:47:02.597Z,2.15
2023-02-09T04:51:15.433Z,6.78
2023-02-09T04:55:27.865Z,3.35
2023-02-09T04:59:41.816Z,8.55
2023-02-09T05:03:54.521Z,3.28
2023-02-09T05:08:07.155Z,5.00
2023-02-09T05:12:19.444Z,15.65
2023-02-09T05:16:31.889Z,4.18
2023-02-09T05:20:45.671Z,6.10
2023-02-09T05:24:58.548Z,3.38
2023-02-09T05:29:10.976Z,5.45
2023-02-09T05:33:29.299Z,10.45
2023-02-09T05:37:41.619Z,4.35
2023-02-09T05:42:12.874Z,6.43
2023-02-09T05:46:25.255Z,7.85
2023-02-09T05:50:37.619Z,8.32
2023-02-09T05:54:52.430Z,2.95
2023-02-09T05:59:04.933Z,9.70
2023-02-09T06:03:17.367Z,7.63
2023-02-09T06:07:29.858Z,10.50
2023-02-09T06:11:42.263Z,4.03
2023-02-09T06:15:54.671Z,6.15
2023-02-09T06:20:07.630Z,16.67
2023-02-09T06:24:20.031Z,10.82
2023-02-09T06:28:32.401Z,15.07
2023-02-09T06:32:44.880Z,17.67
2023-02-09T06:36:57.331Z,12.00
2023-02-09T06:41:09.867Z,21.65
2023-02-09T06:45:22.255Z,26.63
2023-02-09T06:49:34.598Z,9.95
2023-02-09T06:53:47.469Z,14.77
2023-02-09T06:58:00.213Z,13.57
2023-02-09T07:02:12.559Z,22.98
2023-02-09T07:06:25.838Z,19.00
2023-02-09T07:10:41.156Z,22.35
2023-02-09T07:14:53.630Z,19.92
2023-02-09T07:19:06.028Z,31.23
2023-02-09T07:23:18.714Z,31.83
2023-02-09T07:27:31.185Z,11.20
2023-02-09T07:31:43.946Z,43.45
2023-02-09T07:35:56.353Z,35.78
2023-02-09T07:40:09.553Z,38.80
2023-02-09T07:44:22.254Z,32.58
2023-02-09T07:48:36.084Z,52.88
2023-02-09T07:52:48.608Z,26.45
2023-02-09T07:57:01.101Z,42.70
2023-02-09T08:01:13.835Z,34.13
2023-02-09T08:05:35.583Z,39.38
2023-02-09T08:09:48.043Z,63.05
2023-02-09T08:14:05.116Z,57.85
2023-02-09T08:18:23.281Z,60.40
2023-02-09T08:22:41.795Z,59.65
2023-02-09T08:26:55.609Z,41.92
2023-02-09T08:31:09.448Z,43.90
2023-02-09T08:35:22.008Z,61.78
2023-02-09T08:39:34.362Z,63.10
2023-02-09T08:43:51.846Z,59.65
2023-02-09T08:48:06.713Z,82.13
2023-02-09T08:52:19.537Z,48.72
2023-02-09T08:56:31.857Z,34.90
2023-02-09T09:00:44.316Z,26.35
2023-02-09T09:04:56.678Z,27.45
2023-02-09T09:09:09.125Z,57.28
2023-02-09T09:13:22.116Z,51.58
2023-02-09T09:17:35.850Z,44.47
2023-02-09T09:21:48.304Z,51.22
2023-02-09T09:26:04.685Z,45.65
2023-02-09T09:30:17.202Z,43.50
2023-02-09T09:34:30.735Z,35.22
2023-02-09T09:38:43.452Z,32.45
2023-02-09T09:43:02.135Z,28.75
2023-02-09T09:47:20.434Z,23.88
2023-02-09T09:51:39.861Z,23.55
2023-02-09T09:56:00.675Z,27.17
2023-02-09T10:00:28.720Z,22.92
2023-02-09T10:04:41.100Z,19.77
2023-02-09T10:09:06.684Z,23.08
2023-02-09T10:13:40.086Z,14.73
2023-02-09T10:17:52.755Z,16.33
2023-02-09T10:22:05.370Z,16.95
2023-02-09T10:26:23.258Z,24.55
2023-02-09T10:30:38.132Z,17.40
2023-02-09T10:34:58.280Z,22.85
2023-02-09T10:43:35.608Z,14.73
2023-02-09T10:48:13.837Z,10.05
2023-02-09T10:52:31.119Z,6.00
2023-02-09T10:56:47.027Z,8.05
2023-02-09T11:01:17.458Z,8.30
2023-02-09T11:09:49.685Z,11.15
2023-02-09T11:14:03.792Z,6.90
2023-02-09T11:18:25.782Z,10.50
2023-02-09T11:22:56.761Z,7.20
2023-02-09T11:27:26.455Z,6.07
2023-02-09T11:31:48.892Z,6.93
2023-02-09T11:36:30.073Z,7.45
2023-02-09T11:40:51.154Z,8.30
2023-02-09T11:45:11.482Z,9.38
2023-02-09T11:49:28.543Z,7.53
2023-02-09T11:53:50.025Z,5.28
2023-02-09T11:58:20.596Z,6.63
2023-02-09T12:02:52.312Z,7.82
2023-02-09T12:07:32.919Z,7.22
2023-02-09T12:11:54.202Z,9.60
2023-02-09T12:16:17.976Z,5.22
2023-02-09T12:20:43.920Z,7.78
2023-02-09T12:25:28.347Z,6.78
2023-02-09T12:29:41.739Z,5.07
2023-02-09T12:34:00.200Z,6.50
2023-02-09T12:38:19.532Z,6.60
2023-02-09T12:42:41.567Z,5.22
2023-02-09T12:46:59.216Z,6.13
2023-02-09T12:51:43.708Z,7.93
2023-02-09T12:56:10.772Z,5.32
2023-02-09T13:00:31.542Z,8.77
2023-02-09T13:05:12.964Z,10.27
2023-02-09T13:09:39.456Z,5.63
2023-02-09T13:14:03.583Z,7.28
2023-02-09T13:18:44.716Z,7.47
2023-02-09T13:23:10.148Z,6.32
2023-02-09T13:27:24.787Z,9.98
2023-02-09T13:31:50.424Z,6.82
2023-02-09T13:36:23.898Z,5.93
2023-02-09T13:40:37.124Z,4.45
2023-02-09T13:44:55.799Z,5.38
2023-02-09T13:49:19.000Z,6.32
2023-02-09T13:53:32.115Z,6.30
2023-02-09T13:57:47.567Z,6.18
2023-02-09T14:01:59.953Z,8.23
2023-02-09T14:06:25.194Z,5.65
2023-02-09T14:10:43.641Z,5.80
2023-02-09T14:15:16.438Z,7.32
2023-02-09T14:19:33.098Z,8.52
2023-02-09T14:23:56.028Z,6.60
2023-02-09T14:28:15.975Z,7.95
2023-02-09T14:32:36.053Z,8.80
2023-02-09T14:41:31.897Z,10.30
2023-02-09T14:45:58.124Z,5.10
2023-02-09T14:50:19.093Z,5.30
2023-02-09T14:54:34.363Z,5.82
2023-02-09T14:58:46.715Z,7.40
2023-02-09T15:03:00.365Z,6.00
2023-02-09T15:07:18.627Z,11.50
2023-02-09T15:11:49.726Z,9.30
2023-02-09T15:16:02.249Z,12.13
2023-02-09T15:20:16.954Z,10.95
2023-02-09T15:24:29.206Z,21.50
2023-02-09T15:28:41.568Z,23.10
2023-02-09T15:32:54.012Z,31.60
2023-02-09T15:38:04.991Z,26.60
2023-02-09T15:43:36.443Z,25.65
2023-02-09T15:48:47.386Z,29.10
2023-02-09T15:54:00.735Z,27.23
2023-02-09T15:58:18.986Z,29.13
2023-02-09T16:02:32.546Z,47.72
2023-02-09T16:06:55.132Z,47.70
2023-02-09T16:11:18.480Z,24.75
2023-02-09T16:15:30.821Z,33.15
2023-02-09T16:19:45.456Z,19.27
2023-02-09T16:24:00.963Z,17.50
2023-02-09T16:28:14.541Z,23.00
2023-02-09T16:32:28.920Z,22.33
2023-02-09T16:36:42.057Z,25.02
2023-02-09T16:40:55.832Z,19.75
2023-02-09T16:45:12.951Z,11.02
2023-02-09T16:49:28.263Z,13.05
2023-02-09T16:53:51.788Z,12.90
2023-02-09T16:58:06.040Z,13.68
2023-02-09T17:02:38.708Z,10.52
2023-02-09T17:06:53.111Z,15.25
2023-02-09T17:11:05.796Z,14.05
2023-02-09T17:15:29.630Z,12.55
2023-02-09T17:19:47.919Z,23.83
2023-02-09T17:24:00.698Z,20.92
2023-02-09T17:28:13.401Z,13.73
2023-02-09T17:32:25.793Z,15.18
2023-02-09T17:36:39.999Z,10.20
2023-02-09T17:40:54.287Z,15.23
2023-02-09T17:45:22.020Z,12.18
2023-02-09T17:49:35.196Z,14.52
2023-02-09T17:53:48.997Z,17.48
2023-02-09T17:58:01.549Z,65.05
2023-02-09T18:02:20.003Z,79.65
2023-02-09T18:06:37.539Z,94.57
2023-02-09T18:10:50.057Z,111.00
2023-02-09T18:15:04.560Z,122.05
2023-02-09T18:19:17.480Z,81.53
2023-02-09T18:23:29.924Z,86.57
2023-02-09T18:27:42.414Z,102.68
2023-02-09T18:32:01.409Z,70.80
2023-02-09T18:36:15.377Z,77.10
2023-02-09T18:40:28.730Z,33.83
2023-02-09T18:44:41.457Z,76.05
2023-02-09T18:48:55.302Z,91.68
2023-02-09T18:53:08.168Z,73.63
2023-02-09T18:57:20.586Z,83.90
2023-02-09T19:01:33.000Z,51.53
2023-02-09T19:05:45.674Z,43.78
2023-02-09T19:09:58.437Z,89.03
2023-02-09T19:14:29.796Z,103.15
2023-02-09T19:18:42.122Z,63.38
2023-02-09T19:22:54.848Z,61.85
2023-02-09T19:27:09.523Z,106.82
2023-02-09T19:31:21.938Z,110.60
2023-02-09T19:35:34.467Z,66.55
2023-02-09T19:40:00.664Z,63.78
2023-02-09T19:44:13.649Z,64.20
2023-02-09T19:48:26.109Z,120.47
2023-02-09T19:52:40.956Z,112.43
2023-02-09T19:56:53.417Z,52.38
2023-02-09T20:01:09.832Z,74.57
2023-02-09T20:05:22.220Z,43.30
2023-02-09T20:09:34.998Z,46.25
2023-02-09T20:13:52.057Z,47.38
2023-02-09T20:18:04.914Z,58.10
2023-02-09T20:22:17.382Z,61.72
2023-02-09T20:26:30.471Z,63.95
2023-02-09T20:30:45.720Z,59.60
2023-02-09T20:34:58.398Z,134.52
2023-02-09T20:39:16.268Z,66.28
2023-02-09T20:43:47.377Z,42.30
2023-02-09T20:48:00.198Z,55.78
2023-02-09T20:52:13.457Z,52.83
2023-02-09T20:56:26.910Z,60.50
2023-02-09T21:00:43.241Z,68.25
2023-02-09T21:04:57.058Z,64.78
2023-02-09T21:09:14.272Z,119.57
2023-02-09T21:13:26.644Z,120.65
2023-02-09T21:17:45.623Z,65.97
2023-02-09T21:21:58.130Z,115.93
2023-02-09T21:26:13.586Z,69.97
2023-02-09T21:30:27.099Z,130.52
2023-02-09T21:34:39.582Z,66.60
2023-02-09T21:38:53.307Z,122.13
2023-02-09T21:43:05.610Z,76.82
2023-02-09T21:47:18.164Z,81.18
2023-02-09T21:51:30.542Z,94.07
2023-02-09T21:55:42.981Z,154.95
2023-02-09T21:59:55.694Z,60.92
2023-02-09T22:04:08.111Z,110.55
2023-02-09T22:08:20.479Z,125.95
2023-02-09T22:12:34.441Z,84.70
2023-02-09T22:16:47.122Z,79.90
2023-02-09T22:20:59.411Z,128.52
2023-02-09T22:25:11.900Z,139.70
2023-02-09T22:29:25.603Z,59.85
2023-02-09T22:33:38.988Z,71.95
2023-02-09T22:37:51.413Z,57.53
2023-02-09T22:42:03.910Z,74.47
2023-02-09T22:46:16.822Z,109.00
2023-02-09T22:50:29.157Z,113.68
2023-02-09T22:54:41.597Z,108.65
2023-02-09T22:58:55.848Z,102.50
2023-02-09T23:03:08.223Z,106.38
2023-02-09T23:07:20.671Z,85.47
2023-02-09T23:11:33.228Z,86.95
2023-02-09T23:15:45.785Z,47.58
2023-02-09T23:19:58.350Z,69.10
2023-02-09T23:24:12.925Z,44.13
2023-02-09T23:28:25.631Z,47.85
2023-02-09T23:32:38.072Z,90.00
2023-02-09T23:36:50.729Z,91.78
2023-02-09T23:41:11.604Z,54.67
2023-02-09T23:45:24.185Z,57.28
2023-02-09T23:49:36.631Z,89.50
2023-02-09T23:53:49.158Z,52.90
2023-02-09T23:58:01.607Z,41.25
